createdAt,value
2017-12-29T00:01:51.940Z,3.03
2017-12-29T00:04:19.394Z,2.30
2017-12-29T00:06:46.852Z,2.67
2017-12-29T00:09:14.314Z,2.03
2017-12-29T00:11:41.758Z,3.10
2017-12-29T00:14:09.202Z,2.37
2017-12-29T00:16:36.666Z,2.87
2017-12-29T00:19:04.116Z,1.93
2017-12-29T00:21:31.596Z,2.60
2017-12-29T00:23:59.132Z,2.00
2017-12-29T00:26:26.692Z,2.87
2017-12-29T00:28:54.151Z,2.03
2017-12-29T00:31:21.649Z,2.50
2017-12-29T00:33:49.094Z,2.77
2017-12-29T00:36:16.567Z,2.33
2017-12-29T00:38:44.043Z,2.57
2017-12-29T00:41:11.514Z,1.70
2017-12-29T00:43:38.946Z,2.00
2017-12-29T00:46:06.402Z,1.90
2017-12-29T00:48:33.842Z,2.63
2017-12-29T00:51:01.275Z,1.47
2017-12-29T00:53:28.727Z,2.23
2017-12-29T00:55:56.164Z,1.90
2017-12-29T00:58:23.649Z,2.40
2017-12-29T01:00:51.268Z,1.93
2017-12-29T01:03:18.728Z,2.07
2017-12-29T01:05:46.198Z,2.33
2017-12-29T01:08:13.719Z,1.90
2017-12-29T01:10:41.172Z,2.30
2017-12-29T01:13:08.637Z,2.70
2017-12-29T01:15:36.088Z,2.37
2017-12-29T01:18:03.556Z,1.97
2017-12-29T01:20:31.008Z,2.60
2017-12-29T01:22:58.488Z,2.63
2017-12-29T01:25:25.944Z,1.93
2017-12-29T01:27:53.392Z,2.93
2017-12-29T01:30:20.871Z,2.60
2017-12-29T01:32:48.312Z,2.27
2017-12-29T01:35:15.778Z,2.50
2017-12-29T01:37:43.239Z,2.63
2017-12-29T01:40:10.708Z,2.47
2017-12-29T01:42:38.165Z,1.70
2017-12-29T01:45:05.643Z,2.10
2017-12-29T01:47:44.856Z,2.67
2017-12-29T01:50:12.324Z,3.13
2017-12-29T01:52:39.768Z,2.73
2017-12-29T01:55:07.245Z,3.00
2017-12-29T01:57:34.720Z,2.47
2017-12-29T02:00:02.175Z,2.97
2017-12-29T02:02:29.696Z,2.50
2017-12-29T02:04:57.140Z,2.40
2017-12-29T02:07:24.636Z,2.20
2017-12-29T02:09:52.084Z,3.00
2017-12-29T02:12:19.552Z,2.47
2017-12-29T02:14:47.004Z,2.60
2017-12-29T02:17:14.576Z,2.33
2017-12-29T02:19:42.020Z,2.67
2017-12-29T02:22:09.492Z,2.73
2017-12-29T02:24:36.940Z,2.37
2017-12-29T02:27:04.456Z,2.43
2017-12-29T02:29:31.932Z,2.20
2017-12-29T02:31:59.488Z,2.47
2017-12-29T02:34:26.949Z,3.10
2017-12-29T02:36:54.398Z,4.63
2017-12-29T02:39:21.876Z,2.43
2017-12-29T02:41:49.321Z,2.43
2017-12-29T02:44:16.820Z,3.07
2017-12-29T02:46:44.272Z,2.77
2017-12-29T02:49:11.741Z,3.23
2017-12-29T02:51:39.188Z,2.87
2017-12-29T02:54:06.658Z,2.60
2017-12-29T02:56:34.109Z,2.77
2017-12-29T02:59:01.605Z,2.47
2017-12-29T03:01:29.062Z,3.13
2017-12-29T03:03:56.815Z,3.77
2017-12-29T03:06:24.264Z,3.20
2017-12-29T03:08:51.736Z,2.90
2017-12-29T03:11:19.188Z,3.50
2017-12-29T03:13:46.782Z,2.47
2017-12-29T03:16:14.232Z,3.90
2017-12-29T03:18:41.711Z,3.07
2017-12-29T03:21:09.164Z,3.07
2017-12-29T03:23:36.618Z,3.17
2017-12-29T03:26:04.084Z,2.63
2017-12-29T03:28:31.537Z,2.93
2017-12-29T03:30:59.012Z,2.77
2017-12-29T03:33:26.476Z,3.40
2017-12-29T03:35:53.944Z,2.50
2017-12-29T03:38:21.392Z,2.80
2017-12-29T03:40:48.891Z,2.73
2017-12-29T03:43:16.340Z,1.83
2017-12-29T03:45:43.803Z,1.80
2017-12-29T03:48:11.260Z,2.30
2017-12-29T03:50:38.724Z,2.37
2017-12-29T03:53:06.175Z,2.60
2017-12-29T03:55:33.716Z,2.77
2017-12-29T03:58:01.193Z,2.33
2017-12-29T04:00:28.644Z,2.60
2017-12-29T04:02:56.185Z,2.43
2017-12-29T04:05:23.636Z,2.33
2017-12-29T04:07:51.200Z,2.60
2017-12-29T04:10:18.690Z,2.40
2017-12-29T04:12:46.217Z,3.10
2017-12-29T04:15:13.668Z,2.07
2017-12-29T04:17:41.132Z,2.17
2017-12-29T04:20:08.584Z,2.70
2017-12-29T04:22:36.086Z,3.10
2017-12-29T04:25:03.545Z,2.17
2017-12-29T04:27:31.007Z,3.13
2017-12-29T04:29:58.477Z,3.47
2017-12-29T04:32:25.929Z,2.63
2017-12-29T04:34:53.421Z,2.73
2017-12-29T04:37:20.867Z,3.20
2017-12-29T04:39:48.388Z,3.27
2017-12-29T04:42:15.862Z,2.93
2017-12-29T04:44:43.352Z,2.87
2017-12-29T04:47:10.796Z,2.77
2017-12-29T04:49:38.272Z,2.87
2017-12-29T04:52:05.728Z,3.30
2017-12-29T04:54:33.204Z,2.50
2017-12-29T04:57:00.661Z,2.33
2017-12-29T04:59:28.124Z,2.40
2017-12-29T05:01:55.584Z,3.50
2017-12-29T05:04:23.060Z,3.13
2017-12-29T05:06:50.508Z,2.87
2017-12-29T05:09:17.964Z,2.60
2017-12-29T05:11:45.460Z,2.73
2017-12-29T05:14:12.924Z,2.97
2017-12-29T05:16:40.423Z,3.20
2017-12-29T05:19:07.884Z,2.60
2017-12-29T05:21:35.348Z,4.10
2017-12-29T05:24:02.815Z,3.13
2017-12-29T05:26:30.304Z,3.17
2017-12-29T05:28:57.756Z,2.90
2017-12-29T05:31:25.339Z,2.57
2017-12-29T05:33:52.784Z,2.70
2017-12-29T05:36:20.292Z,2.77
2017-12-29T05:38:47.745Z,3.43
2017-12-29T05:41:15.221Z,3.50
2017-12-29T05:43:42.668Z,4.33
2017-12-29T05:46:10.180Z,5.17
2017-12-29T05:48:37.658Z,6.50
2017-12-29T05:51:05.116Z,6.20
2017-12-29T05:53:32.580Z,5.37
2017-12-29T05:56:00.030Z,4.07
2017-12-29T05:58:27.524Z,3.87
2017-12-29T06:00:54.976Z,3.07
2017-12-29T06:03:22.439Z,3.60
2017-12-29T06:05:49.903Z,3.47
2017-12-29T06:08:17.384Z,3.00
2017-12-29T06:10:44.853Z,3.73
2017-12-29T06:13:12.305Z,3.57
2017-12-29T06:15:39.792Z,4.13
2017-12-29T06:18:07.240Z,2.90
2017-12-29T06:20:34.721Z,4.43
2017-12-29T06:23:02.277Z,3.27
2017-12-29T06:25:29.745Z,3.23
2017-12-29T06:27:57.192Z,3.50
2017-12-29T06:30:24.661Z,3.90
2017-12-29T06:32:52.108Z,2.90
2017-12-29T06:35:19.568Z,3.23
2017-12-29T06:37:47.021Z,2.90
2017-12-29T06:40:14.500Z,3.30
2017-12-29T06:42:41.948Z,3.67
2017-12-29T06:45:10.301Z,4.10
2017-12-29T06:47:37.825Z,4.37
2017-12-29T06:50:05.300Z,4.60
2017-12-29T06:52:32.837Z,3.47
2017-12-29T06:55:00.285Z,3.40
2017-12-29T06:57:27.750Z,3.73
2017-12-29T06:59:55.213Z,3.30
2017-12-29T07:02:22.685Z,2.97
2017-12-29T07:04:50.226Z,3.50
2017-12-29T07:07:17.751Z,2.70
2017-12-29T07:09:45.235Z,3.43
2017-12-29T07:12:12.704Z,3.13
2017-12-29T07:14:40.240Z,3.23
2017-12-29T07:17:07.716Z,2.90
2017-12-29T07:19:35.264Z,2.80
2017-12-29T07:22:02.824Z,3.20
2017-12-29T07:24:30.284Z,3.30
2017-12-29T07:26:57.855Z,3.20
2017-12-29T07:29:26.135Z,3.60
2017-12-29T07:31:53.588Z,4.33
2017-12-29T07:34:21.051Z,3.90
2017-12-29T07:36:48.597Z,4.10
2017-12-29T07:39:16.088Z,3.43
2017-12-29T07:41:43.532Z,4.10
2017-12-29T07:44:10.998Z,3.40
2017-12-29T07:46:38.465Z,3.10
2017-12-29T07:49:05.957Z,3.43
2017-12-29T07:51:33.429Z,3.40
2017-12-29T07:54:00.914Z,3.40
2017-12-29T07:56:28.370Z,4.00
2017-12-29T07:58:55.894Z,4.10
2017-12-29T08:01:23.369Z,4.20
2017-12-29T08:03:50.845Z,3.17
2017-12-29T08:06:18.298Z,3.03
2017-12-29T08:08:45.772Z,3.37
2017-12-29T08:11:13.245Z,3.03
2017-12-29T08:13:40.760Z,3.50
2017-12-29T08:16:08.311Z,3.67
2017-12-29T08:18:35.856Z,3.60
2017-12-29T08:21:03.339Z,3.10
2017-12-29T08:23:30.928Z,2.47
2017-12-29T08:25:58.408Z,3.13
2017-12-29T08:28:25.856Z,3.90
2017-12-29T08:30:53.323Z,2.83
2017-12-29T08:33:20.849Z,2.53
2017-12-29T08:35:48.355Z,2.63
2017-12-29T08:38:15.824Z,3.17
2017-12-29T08:40:43.336Z,2.60
2017-12-29T08:43:10.788Z,2.73
2017-12-29T08:45:38.272Z,3.43
2017-12-29T08:48:05.753Z,3.20
2017-12-29T08:50:33.299Z,2.73
2017-12-29T08:53:00.810Z,3.70
2017-12-29T08:55:28.280Z,3.23
2017-12-29T08:57:55.744Z,3.33
2017-12-29T09:00:23.192Z,2.80
2017-12-29T09:02:50.664Z,2.47
2017-12-29T09:05:18.140Z,2.70
2017-12-29T09:07:45.649Z,1.73
2017-12-29T09:10:13.102Z,2.10
2017-12-29T09:12:40.568Z,2.97
2017-12-29T09:15:08.065Z,2.10
2017-12-29T09:17:35.504Z,1.90
2017-12-29T09:20:02.988Z,1.93
2017-12-29T09:22:30.464Z,2.03
2017-12-29T09:24:57.963Z,2.80
2017-12-29T09:27:25.461Z,6.63
2017-12-29T09:29:53.065Z,9.43
2017-12-29T09:32:20.524Z,15.33
2017-12-29T09:34:48.004Z,17.87
2017-12-29T09:37:15.465Z,9.33
2017-12-29T09:39:42.924Z,5.50
2017-12-29T09:42:10.407Z,13.10
2017-12-29T09:44:37.969Z,8.90
2017-12-29T09:47:05.424Z,5.00
2017-12-29T09:49:32.901Z,5.97
2017-12-29T09:52:00.432Z,3.83
2017-12-29T09:54:27.913Z,5.20
2017-12-29T09:56:55.390Z,4.00
2017-12-29T09:59:22.836Z,5.40
2017-12-29T10:01:50.308Z,3.53
2017-12-29T10:04:17.773Z,7.40
2017-12-29T10:06:45.252Z,4.60
2017-12-29T10:09:12.704Z,2.33
2017-12-29T10:11:40.172Z,4.10
2017-12-29T10:14:07.623Z,3.83
2017-12-29T10:16:35.096Z,7.73
2017-12-29T10:19:02.544Z,3.43
2017-12-29T10:21:30.034Z,4.43
2017-12-29T10:23:57.479Z,3.60
2017-12-29T10:26:24.969Z,2.73
2017-12-29T10:28:52.412Z,2.77
2017-12-29T10:31:19.901Z,2.90
2017-12-29T10:33:47.397Z,3.17
2017-12-29T10:36:14.898Z,2.07
2017-12-29T10:38:42.444Z,2.37
2017-12-29T10:41:10.489Z,2.40
2017-12-29T10:43:37.952Z,2.60
2017-12-29T10:46:05.448Z,2.60
2017-12-29T10:48:32.953Z,2.60
2017-12-29T10:51:00.436Z,2.87
2017-12-29T10:53:27.926Z,2.53
2017-12-29T10:55:55.416Z,2.80
2017-12-29T10:58:22.930Z,2.80
2017-12-29T11:00:50.423Z,2.47
2017-12-29T11:03:17.966Z,2.50
2017-12-29T11:05:45.441Z,2.40
2017-12-29T11:08:13.116Z,3.10
2017-12-29T11:10:40.627Z,2.67
2017-12-29T11:13:08.101Z,2.83
2017-12-29T11:15:35.552Z,2.57
2017-12-29T11:18:03.024Z,3.00
2017-12-29T11:20:30.757Z,2.67
2017-12-29T11:22:58.216Z,2.67
2017-12-29T11:25:25.692Z,2.67
2017-12-29T11:27:53.153Z,2.70
2017-12-29T11:30:20.650Z,3.63
2017-12-29T11:32:48.216Z,3.00
2017-12-29T11:35:15.684Z,4.70
2017-12-29T11:37:43.135Z,2.47
2017-12-29T11:40:10.628Z,2.93
2017-12-29T11:42:38.076Z,2.80
2017-12-29T11:45:05.564Z,2.40
2017-12-29T11:47:33.012Z,1.90
2017-12-29T11:50:00.510Z,3.17
2017-12-29T11:52:28.212Z,2.53
2017-12-29T11:54:55.710Z,2.13
2017-12-29T11:57:23.421Z,2.20
2017-12-29T11:59:50.923Z,3.10
2017-12-29T12:02:18.372Z,3.10
2017-12-29T12:04:45.824Z,3.07
2017-12-29T12:07:13.608Z,3.10
2017-12-29T12:09:41.095Z,2.70
2017-12-29T12:12:08.568Z,3.83
2017-12-29T12:14:36.053Z,3.13
2017-12-29T12:17:03.531Z,2.10
2017-12-29T12:19:30.976Z,2.20
2017-12-29T12:21:58.440Z,2.80
2017-12-29T12:24:25.914Z,2.70
2017-12-29T12:26:53.396Z,2.77
2017-12-29T12:29:20.852Z,2.07
2017-12-29T12:31:48.337Z,3.70
2017-12-29T12:34:15.800Z,2.37
2017-12-29T12:36:43.328Z,1.90
2017-12-29T12:39:10.820Z,2.80
2017-12-29T12:41:38.292Z,2.60
2017-12-29T12:44:05.744Z,2.40
2017-12-29T12:46:33.272Z,2.60
2017-12-29T12:49:00.732Z,2.13
2017-12-29T12:51:28.862Z,5.50
2017-12-29T12:53:56.369Z,2.27
2017-12-29T12:56:23.816Z,1.57
2017-12-29T12:58:51.426Z,1.70
2017-12-29T13:01:18.908Z,4.60
2017-12-29T13:03:47.001Z,2.93
2017-12-29T13:06:14.641Z,1.90
2017-12-29T13:08:42.120Z,1.40
2017-12-29T13:11:09.588Z,2.53
2017-12-29T13:13:37.096Z,1.90
2017-12-29T13:16:04.696Z,1.70
2017-12-29T13:18:32.164Z,2.37
2017-12-29T13:20:59.614Z,1.83
2017-12-29T13:23:27.100Z,1.27
2017-12-29T13:25:54.552Z,3.17
2017-12-29T13:28:22.059Z,1.90
2017-12-29T13:30:49.513Z,2.20
2017-12-29T13:33:16.968Z,2.17
2017-12-29T13:35:44.446Z,3.20
2017-12-29T13:38:11.905Z,3.30
2017-12-29T13:40:39.384Z,2.60
2017-12-29T13:43:06.828Z,1.70
2017-12-29T13:45:34.301Z,1.57
2017-12-29T13:48:01.756Z,1.60
2017-12-29T13:50:29.236Z,2.10
2017-12-29T13:52:56.687Z,1.67
2017-12-29T13:55:24.207Z,1.43
2017-12-29T13:57:51.671Z,1.17
2017-12-29T14:00:19.218Z,1.80
2017-12-29T14:02:46.696Z,2.10
2017-12-29T14:05:14.553Z,2.90
2017-12-29T14:07:42.021Z,1.90
2017-12-29T14:10:09.495Z,2.03
2017-12-29T14:12:36.939Z,1.70
2017-12-29T14:15:04.404Z,2.63
2017-12-29T14:17:31.896Z,1.90
2017-12-29T14:19:59.352Z,1.80
2017-12-29T14:22:26.829Z,1.03
2017-12-29T14:24:54.272Z,1.47
2017-12-29T14:27:21.762Z,1.67
2017-12-29T14:29:49.222Z,1.33
2017-12-29T14:32:16.691Z,1.10
2017-12-29T14:34:44.144Z,0.73
2017-12-29T14:37:11.610Z,0.93
2017-12-29T14:39:39.081Z,1.60
2017-12-29T14:42:06.552Z,1.70
2017-12-29T14:44:34.099Z,1.33
2017-12-29T14:47:01.564Z,1.27
2017-12-29T14:49:29.036Z,1.77
2017-12-29T14:51:57.821Z,1.60
2017-12-29T14:54:25.426Z,1.63
2017-12-29T14:56:52.876Z,1.60
2017-12-29T14:59:20.379Z,1.10
2017-12-29T15:01:47.840Z,1.10
2017-12-29T15:04:15.341Z,1.50
2017-12-29T15:06:42.849Z,1.37
2017-12-29T15:09:10.312Z,1.37
2017-12-29T15:11:37.927Z,1.97
2017-12-29T15:14:05.430Z,1.20
2017-12-29T15:16:33.176Z,1.67
2017-12-29T15:19:00.689Z,1.90
2017-12-29T15:21:28.168Z,1.37
2017-12-29T15:23:55.654Z,1.90
2017-12-29T15:26:23.120Z,1.40
2017-12-29T15:28:50.599Z,26.57
2017-12-29T15:31:19.492Z,10.83
2017-12-29T15:33:46.944Z,9.00
2017-12-29T15:36:14.428Z,2.77
2017-12-29T15:38:41.936Z,9.07
2017-12-29T15:41:09.412Z,3.13
2017-12-29T15:43:36.891Z,1.20
2017-12-29T15:46:04.457Z,2.17
2017-12-29T15:48:32.634Z,1.77
2017-12-29T15:51:07.721Z,1.43
2017-12-29T15:53:35.234Z,1.03
2017-12-29T15:56:02.752Z,1.37
2017-12-29T15:58:30.205Z,1.97
2017-12-29T16:00:57.688Z,3.60
2017-12-29T16:03:25.142Z,2.37
2017-12-29T16:05:52.592Z,2.73
2017-12-29T16:08:20.438Z,3.13
2017-12-29T16:10:47.941Z,8.03
2017-12-29T16:13:15.420Z,5.90
2017-12-29T16:15:42.870Z,1.70
2017-12-29T16:18:10.391Z,1.73
2017-12-29T16:20:37.848Z,1.60
2017-12-29T16:23:05.320Z,2.30
2017-12-29T16:25:32.781Z,2.43
2017-12-29T16:28:00.264Z,2.40
2017-12-29T16:30:27.721Z,1.57
2017-12-29T16:32:55.193Z,2.20
2017-12-29T16:35:22.737Z,1.50
2017-12-29T16:37:50.208Z,1.53
2017-12-29T16:40:17.657Z,2.17
2017-12-29T16:42:45.128Z,5.47
2017-12-29T16:45:12.585Z,9.40
2017-12-29T16:47:40.077Z,7.40
2017-12-29T16:50:07.549Z,4.10
2017-12-29T16:52:35.156Z,8.13
2017-12-29T16:55:02.636Z,6.60
2017-12-29T16:57:30.084Z,5.50
2017-12-29T16:59:57.548Z,5.43
2017-12-29T17:02:25.053Z,4.43
2017-12-29T17:04:52.524Z,1.77
2017-12-29T17:07:19.968Z,1.80
2017-12-29T17:09:47.473Z,2.70
2017-12-29T17:12:15.004Z,1.53
2017-12-29T17:14:42.845Z,2.00
2017-12-29T17:17:10.293Z,1.43
2017-12-29T17:19:37.756Z,2.60
2017-12-29T17:22:05.213Z,2.30
2017-12-29T17:24:32.695Z,2.50
2017-12-29T17:27:00.150Z,2.90
2017-12-29T17:29:27.612Z,2.70
2017-12-29T17:31:55.115Z,3.23
2017-12-29T17:34:22.577Z,2.07
2017-12-29T17:36:50.068Z,1.80
2017-12-29T17:39:17.538Z,2.77
2017-12-29T17:41:45.100Z,2.87
2017-12-29T17:44:12.569Z,3.33
2017-12-29T17:46:40.037Z,2.23
2017-12-29T17:49:07.568Z,2.07
2017-12-29T17:51:35.049Z,1.90
2017-12-29T17:54:02.513Z,2.17
2017-12-29T17:56:30.013Z,2.27
2017-12-29T17:58:57.464Z,2.30
2017-12-29T18:01:24.916Z,1.60
2017-12-29T18:03:52.385Z,1.67
2017-12-29T18:06:19.853Z,1.73
2017-12-29T18:08:47.433Z,1.57
2017-12-29T18:11:14.882Z,1.20
2017-12-29T18:13:42.361Z,1.80
2017-12-29T18:16:09.837Z,1.17
2017-12-29T18:18:37.313Z,1.27
2017-12-29T18:21:04.792Z,1.40
2017-12-29T18:23:32.320Z,5.03
2017-12-29T18:25:59.853Z,4.23
2017-12-29T18:28:27.320Z,3.17
2017-12-29T18:30:54.774Z,1.70
2017-12-29T18:33:22.252Z,1.27
2017-12-29T18:35:49.720Z,2.03
2017-12-29T18:38:17.265Z,1.70
2017-12-29T18:40:44.777Z,1.60
2017-12-29T18:43:12.233Z,1.77
2017-12-29T18:45:39.730Z,2.10
2017-12-29T18:48:07.181Z,2.30
2017-12-29T18:50:34.649Z,2.20
2017-12-29T18:53:02.152Z,2.10
2017-12-29T18:55:29.721Z,1.73
2017-12-29T18:57:57.176Z,2.37
2017-12-29T19:00:24.649Z,2.17
2017-12-29T19:02:52.103Z,1.80
2017-12-29T19:05:19.551Z,1.83
2017-12-29T19:07:47.028Z,1.13
2017-12-29T19:10:14.491Z,1.27
2017-12-29T19:12:41.959Z,1.40
2017-12-29T19:15:09.496Z,1.30
2017-12-29T19:17:37.025Z,1.50
2017-12-29T19:20:04.475Z,2.40
2017-12-29T19:22:31.968Z,1.63
2017-12-29T19:24:59.416Z,3.70
2017-12-29T19:27:26.884Z,2.20
2017-12-29T19:29:54.665Z,2.53
2017-12-29T19:32:22.633Z,2.80
2017-12-29T19:34:51.086Z,2.40
2017-12-29T19:37:19.340Z,5.90
2017-12-29T19:39:47.359Z,2.90
2017-12-29T19:42:15.330Z,3.00
2017-12-29T19:44:43.808Z,2.67
2017-12-29T19:47:11.877Z,3.00
2017-12-29T19:49:39.603Z,4.37
2017-12-29T19:52:07.506Z,4.27
2017-12-29T19:54:35.700Z,3.17
2017-12-29T19:57:03.256Z,3.47
2017-12-29T19:59:30.900Z,3.40
2017-12-29T20:01:58.400Z,4.03
2017-12-29T20:04:25.917Z,3.83
2017-12-29T20:06:53.455Z,4.00
2017-12-29T20:09:20.975Z,2.70
2017-12-29T20:11:48.539Z,2.93
2017-12-29T20:14:16.005Z,2.67
2017-12-29T20:16:43.477Z,2.23
2017-12-29T20:19:10.928Z,2.80
2017-12-29T20:21:38.396Z,3.10
2017-12-29T20:24:05.945Z,2.90
2017-12-29T20:26:33.449Z,3.73
2017-12-29T20:29:00.955Z,3.50
2017-12-29T20:31:28.486Z,3.47
2017-12-29T20:33:56.316Z,4.43
2017-12-29T20:36:23.771Z,3.40
2017-12-29T20:38:51.248Z,4.70
2017-12-29T20:41:18.726Z,5.37
2017-12-29T20:43:46.192Z,4.97
2017-12-29T20:46:13.640Z,4.80
2017-12-29T20:48:41.104Z,5.23
2017-12-29T20:51:08.611Z,5.33
2017-12-29T20:53:36.093Z,4.43
2017-12-29T20:56:03.556Z,2.73
2017-12-29T20:58:31.021Z,2.23
2017-12-29T21:00:58.501Z,2.60
2017-12-29T21:03:26.000Z,3.53
2017-12-29T21:05:53.460Z,4.00
2017-12-29T21:08:20.940Z,3.57
2017-12-29T21:10:48.469Z,3.20
2017-12-29T21:13:15.933Z,3.80
2017-12-29T21:15:43.404Z,3.47
2017-12-29T21:18:10.871Z,3.57
2017-12-29T21:20:38.345Z,3.73
2017-12-29T21:23:05.792Z,3.23
2017-12-29T21:25:33.270Z,3.13
2017-12-29T21:28:00.732Z,3.30
2017-12-29T21:30:28.205Z,3.37
2017-12-29T21:32:55.656Z,3.37
2017-12-29T21:35:23.164Z,3.47
2017-12-29T21:37:50.628Z,2.00
2017-12-29T21:40:18.104Z,1.30
2017-12-29T21:42:45.556Z,1.83
2017-12-29T21:45:13.028Z,1.53
2017-12-29T21:47:40.484Z,1.20
2017-12-29T21:50:07.932Z,0.93
2017-12-29T21:52:35.408Z,0.80
2017-12-29T21:55:02.857Z,0.70
2017-12-29T21:57:30.755Z,0.80
2017-12-29T21:59:59.668Z,0.90
2017-12-29T22:02:27.131Z,0.73
2017-12-29T22:04:54.596Z,0.80
2017-12-29T22:07:22.116Z,0.80
2017-12-29T22:09:50.187Z,1.13
2017-12-29T22:12:18.977Z,0.80
2017-12-29T22:14:46.879Z,0.50
2017-12-29T22:17:14.789Z,0.50
2017-12-29T22:19:42.382Z,0.70
2017-12-29T22:22:09.869Z,0.77
2017-12-29T22:24:37.321Z,0.57
2017-12-29T22:27:04.808Z,0.50
2017-12-29T22:29:32.259Z,0.47
2017-12-29T22:31:59.732Z,0.50
2017-12-29T22:34:27.192Z,0.40
2017-12-29T22:36:54.658Z,0.60
2017-12-29T22:39:22.123Z,0.60
2017-12-29T22:41:49.568Z,0.40
2017-12-29T22:44:17.060Z,0.30
2017-12-29T22:46:44.528Z,0.60
2017-12-29T22:49:12.050Z,0.40
2017-12-29T22:51:39.507Z,0.40
2017-12-29T22:54:07.064Z,0.40
2017-12-29T22:56:34.520Z,0.40
2017-12-29T22:59:01.988Z,0.40
2017-12-29T23:01:29.449Z,0.33
2017-12-29T23:03:56.927Z,0.40
2017-12-29T23:06:24.450Z,0.50
2017-12-29T23:08:51.904Z,0.47
2017-12-29T23:11:19.371Z,0.40
2017-12-29T23:13:46.848Z,0.50
2017-12-29T23:16:14.316Z,0.33
2017-12-29T23:18:41.764Z,0.50
2017-12-29T23:21:09.224Z,0.90
2017-12-29T23:23:36.680Z,0.40
2017-12-29T23:26:04.152Z,0.40
2017-12-29T23:28:31.620Z,0.50
2017-12-29T23:30:59.161Z,0.73
2017-12-29T23:33:26.613Z,1.13
2017-12-29T23:35:54.116Z,1.50
2017-12-29T23:38:21.594Z,2.10
2017-12-29T23:40:49.061Z,3.20
2017-12-29T23:43:16.512Z,3.93
2017-12-29T23:45:43.986Z,3.43
2017-12-29T23:48:11.517Z,2.33
2017-12-29T23:50:38.993Z,1.73
2017-12-29T23:53:06.488Z,1.77
2017-12-29T23:55:33.959Z,1.73
2017-12-29T23:58:01.428Z,1.73
